Time;durP1;ratioP1;P1;durP2;ratioP2;P2;SDS_P1;SDS_P2;PMS_P1;PMS_P2;Temp;Humidity;BMP_temperature;BMP_pressure;BME280_temperature;BME280_humidity;BME280_pressure;Samples;Min_cycle;Max_cycle;Signal;HPM_P1;HPM_P2
2022/04/18 00:01:56;;;;;;;2.55;1.50;;;1.80;99.90;;;;;;5055376;28;20025;-79
2022/04/18 00:04:22;;;;;;;2.13;1.58;;;1.70;99.90;;;;;;5054825;28;20032;-79
2022/04/18 00:06:47;;;;;;;2.85;1.58;;;1.60;99.90;;;;;;5055192;28;20051;-79
2022/04/18 00:09:14;;;;;;;1.98;1.40;;;1.60;99.90;;;;;;5054515;28;20021;-79
2022/04/18 00:11:39;;;;;;;2.95;1.60;;;1.60;99.90;;;;;;5054940;28;20489;-79
2022/04/18 00:14:05;;;;;;;2.67;1.35;;;1.60;99.90;;;;;;5054669;28;20075;-79
2022/04/18 00:16:31;;;;;;;3.00;1.60;;;1.70;99.90;;;;;;5053276;28;20117;-79
2022/04/18 00:18:57;;;;;;;3.20;1.50;;;1.70;99.90;;;;;;5054661;28;20052;-79
2022/04/18 00:21:23;;;;;;;2.72;1.48;;;1.70;99.90;;;;;;5054672;28;20051;-79
2022/04/18 00:23:49;;;;;;;2.63;1.70;;;1.70;99.90;;;;;;5055346;28;20072;-79
2022/04/18 00:26:14;;;;;;;3.88;2.25;;;1.70;99.90;;;;;;5054099;28;20029;-79
2022/04/18 00:28:41;;;;;;;2.47;1.40;;;1.70;99.90;;;;;;5054217;28;20020;-79
2022/04/18 00:31:08;;;;;;;4.10;1.42;;;1.80;99.90;;;;;;5054202;28;20025;-79
2022/04/18 00:33:33;;;;;;;3.75;1.67;;;1.80;99.90;;;;;;5055344;28;20032;-79
2022/04/18 00:36:00;;;;;;;2.95;1.77;;;1.80;99.90;;;;;;5053038;28;20025;-79
2022/04/18 00:38:28;;;;;;;2.72;1.80;;;1.70;99.90;;;;;;5054451;28;20021;-79
2022/04/18 00:40:54;;;;;;;4.30;1.75;;;1.60;99.90;;;;;;5053861;28;20031;-79
2022/04/18 00:43:47;;;;;;;3.92;2.10;;;1.50;99.90;;;;;;5054193;28;20032;-79
2022/04/18 00:46:14;;;;;;;4.78;2.33;;;1.40;99.90;;;;;;5054584;28;20032;-79
2022/04/18 00:48:40;;;;;;;3.35;2.33;;;1.30;99.90;;;;;;5054437;28;20375;-79
2022/04/18 00:51:09;;;;;;;3.72;2.10;;;1.20;99.90;;;;;;5054068;28;20075;-79
2022/04/18 00:53:37;;;;;;;3.22;1.75;;;1.20;99.90;;;;;;5053727;28;20444;-79
2022/04/18 00:56:03;;;;;;;3.20;1.67;;;1.20;99.90;;;;;;5054233;28;20071;-79
2022/04/18 00:58:29;;;;;;;3.88;1.80;;;1.20;99.90;;;;;;5053940;28;20477;-78
2022/04/18 01:00:55;;;;;;;3.53;1.88;;;1.20;99.90;;;;;;5053489;28;20107;-78
2022/04/18 01:03:20;;;;;;;3.85;1.77;;;1.20;99.90;;;;;;5053754;28;20044;-78
2022/04/18 01:05:50;;;;;;;3.58;1.88;;;1.30;99.90;;;;;;5053638;28;20017;-78
2022/04/18 01:08:16;;;;;;;4.03;2.10;;;1.20;99.90;;;;;;5053742;28;20044;-78
2022/04/18 01:10:44;;;;;;;3.63;1.88;;;1.20;99.90;;;;;;5052672;28;20037;-78
2022/04/18 01:13:09;;;;;;;2.40;1.67;;;1.20;99.90;;;;;;5053486;28;20106;-78
2022/04/18 01:15:35;;;;;;;3.42;1.60;;;1.20;99.90;;;;;;5052343;28;20025;-79
2022/04/18 01:18:01;;;;;;;2.92;1.75;;;1.20;99.90;;;;;;5053431;28;20025;-78
2022/04/18 01:20:35;;;;;;;3.13;1.80;;;1.20;99.90;;;;;;5053381;28;20049;-78
2022/04/18 01:23:04;;;;;;;3.50;1.80;;;1.20;99.90;;;;;;5052172;28;20057;-78
2022/04/18 01:30:58;;;;;;;11.95;5.40;;;1.20;99.90;;;;;;5053866;28;20401;-78
2022/04/18 01:33:24;;;;;;;17.75;7.50;;;1.20;99.90;;;;;;5052354;28;20029;-78
2022/04/18 01:35:50;;;;;;;12.23;5.85;;;1.20;99.90;;;;;;5052172;28;20086;-79
2022/04/18 01:38:15;;;;;;;8.43;3.70;;;1.20;99.90;;;;;;5052082;28;20027;-78
2022/04/18 01:40:41;;;;;;;5.25;2.88;;;1.20;99.90;;;;;;5053484;28;20068;-78
2022/04/18 01:43:07;;;;;;;3.97;2.10;;;1.20;99.90;;;;;;5053377;28;20067;-78
2022/04/18 01:45:34;;;;;;;4.60;2.17;;;1.20;99.90;;;;;;5052009;28;20025;-78
2022/04/18 01:48:00;;;;;;;3.78;2.10;;;1.10;99.90;;;;;;5052213;28;20040;-78
2022/04/18 01:50:26;;;;;;;3.85;1.83;;;1.10;99.90;;;;;;5052188;28;20029;-78
2022/04/18 01:52:51;;;;;;;4.35;1.85;;;1.10;99.90;;;;;;5052407;28;20533;-78
2022/04/18 01:55:17;;;;;;;3.83;2.08;;;1.10;99.90;;;;;;5053624;28;20029;-79
2022/04/18 01:57:43;;;;;;;4.43;1.90;;;1.10;99.90;;;;;;5053113;28;20025;-78
2022/04/18 02:00:09;;;;;;;3.08;2.00;;;1.10;99.90;;;;;;5052993;28;20451;-78
2022/04/18 02:02:35;;;;;;;3.65;1.90;;;1.00;99.90;;;;;;5053260;28;20032;-78
2022/04/18 02:05:01;;;;;;;3.58;1.83;;;1.00;99.90;;;;;;5054770;28;20032;-78
2022/04/18 02:07:28;;;;;;;2.70;1.65;;;0.90;99.90;;;;;;5055724;28;20025;-78
2022/04/18 02:09:54;;;;;;;5.70;2.15;;;0.90;99.90;;;;;;5058092;28;20416;-79
2022/04/18 02:12:20;;;;;;;3.95;1.75;;;0.90;99.90;;;;;;5055928;28;20117;-79
2022/04/18 02:14:46;;;;;;;3.25;1.63;;;0.80;99.90;;;;;;5055825;28;20063;-79
2022/04/18 02:17:12;;;;;;;6.05;2.08;;;0.70;99.90;;;;;;5057130;28;20052;-78
2022/04/18 02:19:37;;;;;;;3.83;2.17;;;0.60;99.90;;;;;;5057510;28;20021;-79
2022/04/18 02:22:03;;;;;;;3.80;2.10;;;0.50;99.90;;;;;;5057250;28;20025;-79
2022/04/18 02:24:29;;;;;;;5.00;2.03;;;0.40;99.90;;;;;;5056899;28;20028;-79
2022/04/18 02:26:54;;;;;;;4.05;2.05;;;0.40;99.90;;;;;;5056889;28;20087;-78
2022/04/18 02:29:20;;;;;;;3.70;2.00;;;0.40;99.90;;;;;;5056857;28;20087;-79
2022/04/18 02:34:30;;;;;;;4.05;2.20;;;0.40;99.90;;;;;;5056527;28;20448;-79
2022/04/18 02:36:55;;;;;;;5.60;2.20;;;0.50;99.90;;;;;;5056791;28;20017;-79
2022/04/18 02:39:21;;;;;;;4.10;2.15;;;0.40;99.90;;;;;;5056429;28;20033;-79
2022/04/18 02:41:46;;;;;;;4.72;2.22;;;0.40;99.90;;;;;;5055539;28;20032;-79
2022/04/18 02:44:12;;;;;;;4.75;2.40;;;0.40;99.90;;;;;;5055156;28;20036;-79
2022/04/18 02:46:38;;;;;;;4.40;2.72;;;0.40;99.90;;;;;;5056424;28;20470;-79
2022/04/18 02:49:03;;;;;;;4.63;2.83;;;0.40;99.90;;;;;;5056350;28;20040;-79
2022/04/18 02:51:29;;;;;;;5.30;3.00;;;0.40;99.90;;;;;;5056296;28;20017;-79
2022/04/18 02:53:55;;;;;;;4.68;2.95;;;0.50;99.90;;;;;;5055834;28;20485;-79
2022/04/18 02:56:21;;;;;;;6.38;2.70;;;0.50;99.90;;;;;;5055931;28;20044;-79
2022/04/18 02:58:47;;;;;;;6.72;3.05;;;0.50;99.90;;;;;;5056211;28;20025;-79
2022/04/18 03:01:13;;;;;;;6.18;3.50;;;0.50;99.90;;;;;;5056680;28;20028;-79
2022/04/18 03:03:39;;;;;;;7.65;3.85;;;0.40;99.90;;;;;;5054675;28;20021;-78
2022/04/18 03:06:05;;;;;;;6.75;3.70;;;0.30;99.90;;;;;;5055718;28;20028;-78
2022/04/18 03:08:31;;;;;;;5.68;3.00;;;0.30;99.90;;;;;;5056650;28;20021;-78
2022/04/18 03:11:04;;;;;;;7.07;2.65;;;0.30;99.90;;;;;;5055920;28;20024;-78
2022/04/18 03:13:32;;;;;;;6.40;2.50;;;0.30;99.90;;;;;;5056120;28;20481;-78
2022/04/18 03:15:58;;;;;;;4.13;2.60;;;0.20;99.90;;;;;;5053741;28;20075;-78
2022/04/18 03:18:25;;;;;;;4.93;2.90;;;0.20;99.90;;;;;;5055490;28;20041;-78
2022/04/18 03:20:50;;;;;;;4.47;2.63;;;0.30;99.90;;;;;;5055644;28;20037;-78
2022/04/18 03:23:16;;;;;;;4.75;2.35;;;0.30;99.90;;;;;;5055370;28;20025;-78
2022/04/18 03:25:42;;;;;;;4.25;2.70;;;0.30;99.90;;;;;;5055484;28;20021;-78
2022/04/18 03:28:09;;;;;;;6.35;2.35;;;0.30;99.90;;;;;;5054686;28;20029;-78
2022/04/18 03:30:34;;;;;;;4.10;2.60;;;0.20;99.90;;;;;;5054949;28;20392;-78
2022/04/18 03:33:00;;;;;;;4.35;2.40;;;0.00;99.90;;;;;;5056209;28;20108;-78
2022/04/18 03:35:30;;;;;;;3.85;2.00;;;-0.10;99.90;;;;;;5055714;28;20050;-78
2022/04/18 03:40:41;;;;;;;4.82;2.55;;;-0.20;99.90;;;;;;5056072;28;20143;-78
2022/04/18 03:43:06;;;;;;;4.32;2.30;;;-0.20;99.90;;;;;;5055482;28;20025;-78
2022/04/18 03:45:32;;;;;;;3.80;2.20;;;-0.20;99.90;;;;;;5055654;28;20480;-78
2022/04/18 03:47:58;;;;;;;4.53;2.13;;;-0.10;99.90;;;;;;5055966;28;20027;-78
2022/04/18 03:50:24;;;;;;;4.78;2.50;;;-0.10;99.90;;;;;;5054865;28;20033;-78
2022/04/18 03:52:49;;;;;;;4.00;2.40;;;-0.10;99.90;;;;;;5054688;28;20033;-78
2022/04/18 03:55:15;;;;;;;4.45;2.45;;;-0.10;99.90;;;;;;5054466;28;20024;-79
2022/04/18 03:57:41;;;;;;;3.72;2.33;;;-0.10;99.90;;;;;;5054480;28;20083;-79
2022/04/18 04:00:08;;;;;;;4.97;2.38;;;-0.10;99.90;;;;;;5054680;28;20091;-79
2022/04/18 04:02:34;;;;;;;3.67;2.10;;;-0.20;99.90;;;;;;5054524;28;20021;-79
2022/04/18 04:05:00;;;;;;;3.25;1.90;;;-0.20;99.90;;;;;;5054323;28;20467;-78
2022/04/18 04:07:26;;;;;;;3.63;1.75;;;-0.10;99.90;;;;;;5054307;28;20474;-79
2022/04/18 04:09:53;;;;;;;3.30;2.10;;;-0.10;99.90;;;;;;5054858;28;20025;-79
2022/04/18 04:12:23;;;;;;;6.03;2.67;;;-0.20;99.90;;;;;;5054424;28;20021;-78
2022/04/18 04:14:52;;;;;;;3.80;2.30;;;-0.10;99.90;;;;;;5054471;28;20021;-78
2022/04/18 04:17:18;;;;;;;3.92;2.08;;;-0.10;99.90;;;;;;5054291;28;20028;-78
2022/04/18 04:19:44;;;;;;;4.18;2.08;;;-0.10;99.90;;;;;;5054204;28;20021;-78
2022/04/18 04:22:10;;;;;;;4.68;2.30;;;-0.10;99.90;;;;;;5054035;28;20029;-78
2022/04/18 04:24:36;;;;;;;5.32;2.60;;;-0.10;99.90;;;;;;5054133;28;20036;-78
2022/04/18 04:27:02;;;;;;;3.70;2.33;;;-0.10;99.90;;;;;;5053002;28;20033;-78
2022/04/18 04:29:28;;;;;;;5.15;2.92;;;-0.10;99.90;;;;;;5054124;28;20020;-78
2022/04/18 04:31:54;;;;;;;5.50;2.58;;;-0.10;99.90;;;;;;5053094;28;20090;-78
2022/04/18 04:34:20;;;;;;;4.70;2.45;;;-0.10;99.90;;;;;;5052953;28;20029;-78
2022/04/18 04:36:45;;;;;;;4.90;2.95;;;-0.10;99.90;;;;;;5054449;28;20048;-79
2022/04/18 04:39:12;;;;;;;3.13;2.20;;;-0.20;99.90;;;;;;5054136;28;20032;-78
2022/04/18 04:41:38;;;;;;;4.75;2.70;;;-0.20;99.90;;;;;;5054383;28;20091;-78
2022/04/18 04:44:07;;;;;;;3.95;2.20;;;-0.20;99.90;;;;;;5054462;28;20508;-78
2022/04/18 04:46:33;;;;;;;5.45;2.40;;;-0.20;99.90;;;;;;5069813;28;20074;-78
2022/04/18 04:48:59;;;;;;;3.83;2.55;;;-0.20;99.90;;;;;;5053422;28;20040;-78
2022/04/18 04:51:25;;;;;;;4.95;2.83;;;-0.20;99.90;;;;;;5054148;28;20024;-78
2022/04/18 04:53:51;;;;;;;5.35;3.63;;;-0.20;99.90;;;;;;5054082;28;20025;-79
2022/04/18 04:56:17;;;;;;;6.95;4.35;;;-0.20;99.90;;;;;;5052824;28;20017;-78
2022/04/18 04:58:43;;;;;;;6.32;4.47;;;-0.20;99.90;;;;;;5053979;28;20029;-78
2022/04/18 05:01:09;;;;;;;10.02;6.22;;;-0.20;99.90;;;;;;5053919;28;20495;-79
2022/04/18 05:03:35;;;;;;;16.55;8.73;;;-0.20;99.90;;;;;;5053549;28;20481;-79
2022/04/18 05:06:01;;;;;;;19.90;9.48;;;-0.20;99.90;;;;;;5052041;28;20025;-79
2022/04/18 05:08:26;;;;;;;18.33;9.13;;;-0.20;99.90;;;;;;5053718;28;20473;-78
2022/04/18 05:10:55;;;;;;;11.30;5.75;;;-0.20;99.90;;;;;;5053704;28;20031;-79
2022/04/18 05:13:23;;;;;;;10.10;4.80;;;-0.20;99.90;;;;;;5053725;28;20029;-78
2022/04/18 05:15:49;;;;;;;6.30;3.30;;;-0.20;99.90;;;;;;5053929;28;20104;-78
2022/04/18 05:18:15;;;;;;;6.80;3.40;;;-0.20;99.90;;;;;;5053604;28;20075;-78
2022/04/18 05:20:40;;;;;;;6.65;2.97;;;-0.10;99.90;;;;;;5053508;28;20508;-78
2022/04/18 05:23:06;;;;;;;7.30;3.28;;;-0.10;99.90;;;;;;5053437;28;20018;-78
2022/04/18 05:25:32;;;;;;;6.20;3.38;;;-0.10;99.90;;;;;;5053778;28;20036;-78
2022/04/18 05:27:58;;;;;;;5.47;3.63;;;-0.10;99.90;;;;;;5053370;28;20025;-78
2022/04/18 05:30:23;;;;;;;4.45;3.20;;;-0.10;99.90;;;;;;5053983;28;20354;-79
2022/04/18 05:32:49;;;;;;;5.47;3.10;;;-0.10;99.90;;;;;;5053268;28;20481;-78
2022/04/18 05:35:15;;;;;;;5.07;3.20;;;0.00;99.90;;;;;;5051884;28;20170;-78
2022/04/18 05:37:41;;;;;;;6.57;2.88;;;0.00;99.90;;;;;;5053513;28;20021;-78
2022/04/18 05:40:08;;;;;;;6.32;2.92;;;0.00;99.90;;;;;;5054401;28;20033;-78
2022/04/18 05:42:35;;;;;;;4.93;3.05;;;0.10;99.90;;;;;;5057426;28;20102;-78
2022/04/18 05:45:00;;;;;;;7.05;3.55;;;0.10;99.90;;;;;;5056966;28;20040;-78
2022/04/18 05:47:26;;;;;;;4.97;3.20;;;0.10;99.90;;;;;;5057070;28;20029;-78
2022/04/18 05:49:52;;;;;;;5.85;3.50;;;0.10;99.90;;;;;;5057145;28;20496;-78
2022/04/18 05:52:18;;;;;;;5.55;3.40;;;0.20;99.90;;;;;;5057096;28;20389;-78
2022/04/18 05:54:43;;;;;;;4.75;3.13;;;0.20;99.90;;;;;;5057599;28;20025;-78
2022/04/18 05:57:09;;;;;;;5.95;3.20;;;0.20;99.90;;;;;;5055021;28;20362;-78
2022/04/18 05:59:35;;;;;;;6.53;3.67;;;0.30;99.90;;;;;;5056710;28;20029;-78
2022/04/18 06:02:01;;;;;;;6.00;3.50;;;0.30;99.90;;;;;;5056996;28;20021;-78
2022/04/18 06:04:27;;;;;;;6.13;3.92;;;0.30;99.90;;;;;;5055971;28;20404;-77
2022/04/18 06:06:52;;;;;;;7.13;4.20;;;0.30;99.90;;;;;;5056798;28;20061;-77
2022/04/18 06:09:18;;;;;;;6.18;3.92;;;0.40;99.90;;;;;;5055327;28;20397;-78
2022/04/18 06:11:44;;;;;;;7.97;4.63;;;0.40;99.90;;;;;;5056750;28;20478;-78
2022/04/18 06:14:09;;;;;;;10.43;4.47;;;0.50;99.90;;;;;;5056386;28;20029;-77
2022/04/18 06:16:35;;;;;;;9.70;5.28;;;0.50;99.90;;;;;;5055918;28;20035;-77
2022/04/18 06:19:01;;;;;;;13.45;6.13;;;0.50;99.90;;;;;;5056318;28;20029;-77
2022/04/18 06:21:26;;;;;;;9.15;5.63;;;0.60;99.90;;;;;;5056625;28;20032;-78
2022/04/18 06:23:52;;;;;;;14.27;6.00;;;0.60;99.90;;;;;;5055094;28;20017;-78
2022/04/18 06:26:18;;;;;;;9.52;5.78;;;0.70;99.90;;;;;;5057671;28;20369;-78
2022/04/18 06:28:44;;;;;;;11.75;7.00;;;0.70;99.90;;;;;;5056582;28;20021;-78
2022/04/18 06:31:09;;;;;;;12.90;7.25;;;0.70;99.90;;;;;;5054907;28;20518;-78
2022/04/18 06:33:35;;;;;;;14.68;8.43;;;0.80;99.90;;;;;;5056348;28;20444;-78
2022/04/18 06:36:01;;;;;;;11.65;7.65;;;0.90;99.90;;;;;;5056091;28;20504;-78
2022/04/18 06:38:28;;;;;;;12.73;8.02;;;1.00;99.90;;;;;;5056753;28;20032;-78
2022/04/18 06:40:56;;;;;;;12.75;6.47;;;1.10;99.90;;;;;;5056031;28;20029;-78
2022/04/18 06:43:23;;;;;;;9.80;6.28;;;1.10;99.90;;;;;;5056010;28;20021;-78
2022/04/18 06:45:48;;;;;;;11.32;6.78;;;1.20;99.90;;;;;;5054963;28;20029;-78
2022/04/18 06:48:14;;;;;;;10.05;6.70;;;1.30;99.90;;;;;;5056246;28;20103;-78
2022/04/18 06:50:40;;;;;;;9.38;6.10;;;1.40;99.90;;;;;;5054197;28;20029;-78
2022/04/18 06:53:06;;;;;;;10.13;6.50;;;1.60;99.90;;;;;;5056492;28;20481;-79
2022/04/18 06:56:58;;;;;;;8.43;5.63;;;1.70;99.90;;;;;;5057323;28;20040;-79
2022/04/18 06:58:17;;;;;;;9.02;5.30;;;1.90;99.90;;;;;;5057250;28;20032;-79
2022/04/18 07:00:43;;;;;;;9.95;5.40;;;2.00;99.90;;;;;;5056696;28;20043;-79
2022/04/18 07:03:08;;;;;;;8.48;4.95;;;2.10;99.90;;;;;;5056373;28;20020;-79
2022/04/18 07:05:34;;;;;;;8.32;4.75;;;2.30;99.90;;;;;;5057547;28;20473;-78
2022/04/18 07:08:00;;;;;;;6.97;4.93;;;2.40;99.90;;;;;;5057388;28;20055;-79
2022/04/18 07:10:26;;;;;;;8.00;4.65;;;2.60;99.90;;;;;;5057551;28;20021;-79
2022/04/18 07:12:51;;;;;;;9.38;4.60;;;2.70;99.90;;;;;;5057492;28;20495;-79
2022/04/18 07:15:17;;;;;;;6.78;4.85;;;2.90;99.90;;;;;;5053784;28;20032;-79
2022/04/18 07:17:43;;;;;;;7.38;5.03;;;3.00;99.90;;;;;;5055272;28;20029;-79
2022/04/18 07:20:09;;;;;;;9.82;5.05;;;3.20;99.90;;;;;;5055389;28;20017;-79
2022/04/18 07:22:39;;;;;;;7.88;4.55;;;3.30;99.90;;;;;;5055145;28;20021;-79
2022/04/18 07:25:05;;;;;;;8.77;5.05;;;3.40;99.90;;;;;;5054900;28;20104;-79
2022/04/18 07:27:31;;;;;;;9.52;5.00;;;3.60;99.90;;;;;;5053658;28;20025;-79
2022/04/18 07:29:57;;;;;;;8.25;4.88;;;3.70;99.90;;;;;;5055358;28;20031;-79
2022/04/18 07:32:22;;;;;;;9.98;4.78;;;3.80;99.90;;;;;;5054791;28;20389;-79
2022/04/18 07:34:48;;;;;;;8.35;5.22;;;4.00;99.90;;;;;;5053389;28;20060;-79
2022/04/18 07:37:14;;;;;;;6.20;4.22;;;4.20;99.90;;;;;;5054940;28;20516;-79
2022/04/18 07:39:39;;;;;;;8.10;4.03;;;4.40;99.90;;;;;;5053196;28;20029;-79
2022/04/18 07:42:05;;;;;;;5.95;4.00;;;4.50;99.90;;;;;;5054632;28;20033;-79
2022/04/18 07:44:31;;;;;;;7.00;4.00;;;4.60;99.90;;;;;;5053372;28;20025;-79
2022/04/18 07:46:58;;;;;;;5.95;3.92;;;4.70;99.90;;;;;;5054656;28;20035;-79
2022/04/18 07:49:24;;;;;;;7.20;4.07;;;4.90;99.90;;;;;;5053241;28;20483;-79
2022/04/18 07:51:50;;;;;;;6.13;4.10;;;5.00;99.90;;;;;;5054569;28;20036;-79
2022/04/18 07:54:17;;;;;;;5.78;3.88;;;5.20;99.90;;;;;;5054354;28;20036;-79
2022/04/18 07:56:43;;;;;;;6.72;3.80;;;5.30;99.90;;;;;;5054687;28;20066;-79
2022/04/18 07:59:10;;;;;;;5.55;3.75;;;5.40;99.90;;;;;;5054334;28;20493;-79
2022/04/18 08:01:35;;;;;;;5.63;3.30;;;5.60;99.90;;;;;;5053722;28;20036;-79
2022/04/18 08:04:02;;;;;;;4.88;3.08;;;5.70;98.50;;;;;;5052396;28;20107;-80
2022/04/18 08:06:29;;;;;;;5.80;3.83;;;5.70;97.60;;;;;;5054089;28;20017;-79
2022/04/18 08:08:54;;;;;;;5.47;3.60;;;5.90;98.80;;;;;;5053935;28;20028;-79
2022/04/18 08:11:20;;;;;;;6.03;4.00;;;6.00;98.90;;;;;;5053933;28;20386;-79
2022/04/18 08:13:47;;;;;;;5.63;4.00;;;6.20;98.20;;;;;;5052848;28;20039;-79
2022/04/18 08:16:13;;;;;;;5.32;3.90;;;6.30;97.80;;;;;;5053741;28;20059;-79
2022/04/18 08:18:42;;;;;;;4.60;3.65;;;6.50;97.60;;;;;;5054359;28;20017;-79
2022/04/18 08:21:08;;;;;;;3.08;2.08;;;6.60;96.40;;;;;;5053777;28;20040;-79
2022/04/18 08:23:34;;;;;;;3.75;2.50;;;6.70;92.80;;;;;;5054338;28;20017;-79
2022/04/18 08:26:01;;;;;;;6.88;2.47;;;6.80;91.20;;;;;;5053689;28;20119;-79
2022/04/18 08:28:27;;;;;;;15.02;2.83;;;6.90;91.20;;;;;;5053742;28;20029;-79
2022/04/18 08:30:53;;;;;;;4.15;2.60;;;7.00;91.20;;;;;;5053719;28;20025;-79
2022/04/18 08:33:19;;;;;;;2.95;2.28;;;7.20;91.30;;;;;;5053605;28;20024;-79
2022/04/18 08:35:45;;;;;;;3.95;2.70;;;7.40;90.40;;;;;;5053835;28;20103;-79
2022/04/18 08:38:11;;;;;;;4.20;2.72;;;7.50;89.40;;;;;;5053578;28;20025;-79
2022/04/18 08:40:37;;;;;;;6.90;3.35;;;7.60;88.10;;;;;;5053457;28;20162;-79
2022/04/18 08:43:03;;;;;;;6.70;3.10;;;7.80;86.30;;;;;;5052558;28;20024;-79
2022/04/18 08:45:29;;;;;;;4.00;2.80;;;7.90;87.90;;;;;;5053420;28;20086;-79
2022/04/18 08:53:28;;;;;;;3.97;2.78;;;8.40;82.00;;;;;;5053620;28;20036;-79
2022/04/18 08:55:54;;;;;;;7.40;3.70;;;8.60;82.10;;;;;;5053711;28;20040;-79
2022/04/18 08:58:22;;;;;;;11.82;6.20;;;8.70;80.30;;;;;;5053328;28;20032;-79
2022/04/18 09:00:49;;;;;;;8.02;5.47;;;8.90;80.30;;;;;;5053355;28;20053;-79
2022/04/18 09:03:15;;;;;;;7.22;4.45;;;9.00;78.10;;;;;;5053538;28;20354;-79
2022/04/18 09:05:40;;;;;;;5.95;3.45;;;9.10;78.70;;;;;;5053202;28;20028;-79
2022/04/18 09:08:08;;;;;;;6.75;4.05;;;9.30;78.90;;;;;;5053228;28;20469;-79
2022/04/18 09:10:35;;;;;;;7.10;4.70;;;9.40;78.90;;;;;;5053180;28;20080;-79
2022/04/18 09:13:12;;;;;;;7.28;4.40;;;9.50;78.40;;;;;;5053548;28;20021;-79
2022/04/18 09:15:43;;;;;;;6.85;3.20;;;9.70;76.70;;;;;;5057838;28;20029;-79
2022/04/18 09:18:19;;;;;;;2.80;2.10;;;9.90;75.40;;;;;;5057598;28;20025;-79
2022/04/18 09:20:50;;;;;;;3.35;2.30;;;10.10;70.10;;;;;;5057229;28;20029;-79
2022/04/18 09:23:20;;;;;;;3.35;1.80;;;10.20;68.00;;;;;;5058140;28;20017;-79
2022/04/18 09:25:50;;;;;;;5.97;2.10;;;10.20;64.70;;;;;;5057869;28;20025;-79
2022/04/18 09:28:16;;;;;;;3.15;1.60;;;10.30;64.80;;;;;;5057175;28;20083;-79
2022/04/18 09:30:42;;;;;;;6.70;1.90;;;10.50;67.50;;;;;;5057899;28;20029;-79
2022/04/18 09:33:08;;;;;;;3.40;1.95;;;10.70;68.90;;;;;;5057045;28;20025;-79
2022/04/18 09:35:35;;;;;;;4.70;2.05;;;10.90;67.00;;;;;;5055521;28;20423;-79
2022/04/18 09:38:03;;;;;;;4.88;1.92;;;11.00;65.10;;;;;;5057131;28;20064;-79
2022/04/18 09:40:31;;;;;;;3.42;1.63;;;11.10;65.70;;;;;;5056713;28;20036;-79
2022/04/18 09:42:57;;;;;;;6.32;1.70;;;11.20;64.90;;;;;;5055544;28;20028;-79
2022/04/18 09:45:29;;;;;;;3.60;1.85;;;11.40;63.50;;;;;;5056771;28;20024;-79
2022/04/18 09:48:01;;;;;;;6.22;4.50;;;11.50;64.40;;;;;;5056674;28;20025;-79
2022/04/18 09:53:21;;;;;;;2.38;1.63;;;11.70;59.40;;;;;;5057232;28;20036;-79
2022/04/18 09:55:49;;;;;;;3.63;1.83;;;11.80;57.30;;;;;;5055287;28;20029;-79
2022/04/18 09:58:14;;;;;;;4.30;2.25;;;11.90;58.40;;;;;;5056670;28;20021;-79
2022/04/18 10:00:41;;;;;;;2.20;1.30;;;11.90;57.30;;;;;;5056746;28;20074;-79
2022/04/18 10:03:08;;;;;;;3.03;1.60;;;12.00;57.40;;;;;;5056444;28;20045;-79
2022/04/18 10:05:34;;;;;;;3.63;1.60;;;12.10;52.90;;;;;;5056443;28;20478;-79
2022/04/18 10:08:04;;;;;;;1.73;1.10;;;12.10;53.10;;;;;;5056582;28;20036;-79
2022/04/18 10:10:35;;;;;;;12.13;5.20;;;12.00;55.20;;;;;;5056678;28;20108;-79
2022/04/18 10:13:06;;;;;;;4.55;1.30;;;12.10;52.90;;;;;;5056640;28;20035;-79
2022/04/18 10:15:33;;;;;;;5.38;2.78;;;12.10;51.30;;;;;;5056594;28;20056;-79
2022/04/18 10:18:02;;;;;;;6.28;3.08;;;12.20;52.50;;;;;;5056277;28;20025;-79
2022/04/18 10:20:46;;;;;;;5.47;3.30;;;12.30;51.10;;;;;;5056488;28;20376;-79
2022/04/18 10:23:49;;;;;;;2.80;1.90;;;12.30;51.80;;;;;;5056135;28;20021;-79
2022/04/18 10:26:47;;;;;;;2.08;1.00;;;12.40;50.50;;;;;;5055408;28;20519;-79
2022/04/18 10:29:18;;;;;;;5.78;3.00;;;12.40;49.50;;;;;;5055102;28;20469;-79
2022/04/18 10:31:45;;;;;;;6.82;3.63;;;12.60;51.00;;;;;;5051382;28;20029;-79
2022/04/18 10:34:14;;;;;;;2.38;0.98;;;12.70;48.10;;;;;;5036280;28;20080;-79
2022/04/18 10:36:50;;;;;;;1.95;0.80;;;12.70;50.70;;;;;;5036480;28;20176;-78
2022/04/18 10:39:16;;;;;;;2.03;0.80;;;12.80;45.00;;;;;;5035308;28;20037;-78
2022/04/18 10:41:46;;;;;;;2.97;1.10;;;12.80;46.10;;;;;;5036297;28;20025;-79
2022/04/18 10:44:16;;;;;;;2.47;0.85;;;12.90;48.60;;;;;;5035800;28;20021;-79
2022/04/18 10:46:52;;;;;;;3.85;1.10;;;12.90;47.40;;;;;;5034540;28;20022;-78
2022/04/18 10:49:19;;;;;;;1.48;0.85;;;13.00;44.50;;;;;;5041067;28;20029;-78
2022/04/18 10:51:47;;;;;;;4.22;1.08;;;13.10;44.90;;;;;;5055998;28;20053;-79
2022/04/18 10:54:29;;;;;;;2.03;1.00;;;13.20;45.60;;;;;;5054726;28;20025;-79
2022/04/18 10:57:01;;;;;;;2.75;1.00;;;13.30;45.90;;;;;;5055476;28;20021;-79
2022/04/18 10:59:32;;;;;;;1.88;0.93;;;13.30;46.60;;;;;;5055389;28;20021;-78
2022/04/18 11:02:01;;;;;;;2.35;1.60;;;13.40;44.10;;;;;;5054702;28;20033;-78
2022/04/18 11:04:33;;;;;;;3.60;1.15;;;13.40;45.70;;;;;;5034370;28;20033;-78
2022/04/18 11:07:03;;;;;;;2.55;1.08;;;13.50;46.50;;;;;;5043987;28;20021;-78
2022/04/18 11:09:30;;;;;;;2.10;1.00;;;13.50;43.90;;;;;;5054914;28;20021;-79
2022/04/18 11:12:05;;;;;;;1.58;0.80;;;13.60;45.80;;;;;;5050212;28;20029;-78
2022/04/18 11:14:54;;;;;;;1.52;0.90;;;13.80;42.60;;;;;;5042385;28;20060;-78
2022/04/18 11:17:32;;;;;;;2.72;0.93;;;13.70;42.90;;;;;;5053184;28;20032;-79
2022/04/18 11:20:16;;;;;;;2.75;0.75;;;13.80;41.80;;;;;;5055648;28;20021;-79
2022/04/18 11:22:42;;;;;;;1.85;1.00;;;13.80;40.80;;;;;;5053727;28;20025;-79
2022/04/18 11:25:11;;;;;;;1.50;0.90;;;13.80;44.20;;;;;;5054971;28;20028;-79
2022/04/18 11:27:37;;;;;;;2.47;1.05;;;13.80;44.30;;;;;;5055091;28;20021;-79
2022/04/18 11:30:13;;;;;;;2.45;1.23;;;13.80;42.50;;;;;;5055347;28;20048;-79
2022/04/18 11:32:42;;;;;;;2.22;1.10;;;13.70;45.60;;;;;;5055025;28;20551;-79
2022/04/18 11:35:09;;;;;;;2.80;0.80;;;13.80;47.00;;;;;;5055172;28;20070;-79
2022/04/18 11:37:39;;;;;;;1.50;0.95;;;13.90;45.90;;;;;;5053711;28;20118;-79
2022/04/18 11:40:10;;;;;;;3.90;1.20;;;14.00;44.90;;;;;;5054575;28;20112;-79
2022/04/18 11:42:37;;;;;;;5.28;1.20;;;14.00;47.50;;;;;;5054914;28;20035;-79
2022/04/18 11:45:19;;;;;;;2.03;0.90;;;14.10;44.10;;;;;;5054470;28;20079;-79
2022/04/18 11:47:47;;;;;;;2.25;1.00;;;14.10;45.40;;;;;;5054895;28;20099;-79
2022/04/18 11:50:15;;;;;;;2.67;1.00;;;14.10;43.70;;;;;;5054456;28;20443;-79
2022/04/18 11:52:42;;;;;;;1.63;0.85;;;14.20;44.10;;;;;;5053242;28;20029;-79
2022/04/18 11:55:14;;;;;;;2.65;1.20;;;14.00;44.30;;;;;;5054255;28;20060;-79
2022/04/18 11:57:45;;;;;;;2.47;1.10;;;13.90;45.50;;;;;;5055251;28;20378;-79
2022/04/18 12:06:44;;;;;;;2.05;0.95;;;13.90;44.20;;;;;;5053555;28;20032;-79
2022/04/18 12:08:32;;;;;;;3.88;1.10;;;14.40;46.70;;;;;;5054280;28;20082;-79
2022/04/18 12:10:58;;;;;;;2.20;1.10;;;14.30;45.60;;;;;;5054468;28;20021;-79
2022/04/18 12:13:23;;;;;;;2.15;1.08;;;14.20;45.60;;;;;;5054057;28;20370;-79
2022/04/18 12:15:49;;;;;;;2.25;1.10;;;14.30;45.60;;;;;;5054006;28;20029;-79
2022/04/18 12:18:19;;;;;;;2.17;1.00;;;14.50;49.60;;;;;;5054131;28;20013;-79
2022/04/18 12:20:50;;;;;;;2.58;1.23;;;14.60;49.80;;;;;;5054081;28;20396;-78
2022/04/18 12:23:20;;;;;;;1.90;1.10;;;14.60;47.00;;;;;;5054773;28;20457;-80
2022/04/18 12:25:49;;;;;;;2.58;1.05;;;14.70;48.60;;;;;;5054359;28;20029;-81
2022/04/18 12:28:16;;;;;;;3.15;1.27;;;14.70;48.00;;;;;;5055284;28;20036;-81
2022/04/18 12:30:42;;;;;;;2.20;1.15;;;14.70;47.40;;;;;;5055187;28;20485;-81
2022/04/18 12:33:11;;;;;;;2.70;1.10;;;14.70;48.30;;;;;;5054960;28;20029;-81
2022/04/18 12:35:59;;;;;;;1.98;1.00;;;14.70;47.10;;;;;;5054245;28;20028;-81
2022/04/18 12:38:36;;;;;;;3.25;1.25;;;14.60;47.90;;;;;;5054721;28;20104;-81
2022/04/18 12:41:02;;;;;;;1.67;1.10;;;14.70;47.80;;;;;;5052596;28;20028;-81
2022/04/18 12:43:30;;;;;;;2.53;1.30;;;14.70;45.80;;;;;;5053830;28;20096;-80
2022/04/18 12:45:56;;;;;;;3.80;1.30;;;14.60;48.80;;;;;;5054273;28;20029;-81
2022/04/18 12:48:28;;;;;;;2.33;1.20;;;14.60;48.50;;;;;;5053640;28;20027;-80
2022/04/18 12:50:55;;;;;;;2.10;1.27;;;14.70;48.90;;;;;;5052592;28;20496;-80
2022/04/18 12:53:22;;;;;;;4.03;1.30;;;14.80;47.80;;;;;;5052428;28;20115;-81
2022/04/18 12:56:04;;;;;;;2.42;1.30;;;14.80;48.00;;;;;;5052380;28;20083;-81
2022/04/18 12:58:38;;;;;;;2.47;1.27;;;14.80;48.30;;;;;;5052921;28;20060;-81
2022/04/18 13:01:04;;;;;;;5.28;2.22;;;14.70;47.50;;;;;;5053991;28;20052;-81
2022/04/18 13:03:29;;;;;;;3.90;1.92;;;14.60;48.10;;;;;;5052742;28;20025;-80
2022/04/18 13:05:55;;;;;;;4.07;1.90;;;14.40;48.30;;;;;;5053471;28;20025;-80
2022/04/18 13:08:21;;;;;;;8.57;2.15;;;14.50;49.20;;;;;;5053508;28;20047;-81
2022/04/18 13:10:55;;;;;;;4.50;1.38;;;14.60;47.80;;;;;;5053700;28;20477;-81
2022/04/18 13:13:21;;;;;;;4.28;1.40;;;14.60;49.20;;;;;;5054406;28;20038;-81
2022/04/18 13:15:48;;;;;;;1.88;1.13;;;14.70;48.30;;;;;;5053440;28;20385;-81
2022/04/18 13:18:26;;;;;;;2.28;1.45;;;14.80;47.90;;;;;;5053596;28;20477;-81
2022/04/18 13:20:52;;;;;;;2.65;1.45;;;14.90;50.10;;;;;;5053389;28;20049;-82